Time;durP1;ratioP1;P1;durP2;ratioP2;P2;SDS_P1;SDS_P2;PMS_P1;PMS_P2;Temp;Humidity;BMP_temperature;BMP_pressure;BME280_temperature;BME280_humidity;BME280_pressure;Samples;Min_cycle;Max_cycle;Signal;HPM_P1;HPM_P2
2022/05/09 00:00:37;;;;;;;7.63;4.38;;;12.50;99.90;;;;;;5072169;28;20260;-74
2022/05/09 00:03:26;;;;;;;9.88;4.60;;;12.40;99.90;;;;;;5074833;28;20689;-73
2022/05/09 00:06:16;;;;;;;8.32;4.38;;;12.40;99.90;;;;;;5056761;28;20351;-74
2022/05/09 00:09:05;;;;;;;9.90;4.30;;;12.30;99.90;;;;;;5045161;28;20719;-73
2022/05/09 00:11:54;;;;;;;7.53;4.63;;;12.30;99.90;;;;;;5055266;28;21066;-73
2022/05/09 00:14:43;;;;;;;9.38;4.88;;;12.40;99.90;;;;;;5061035;28;20828;-73
2022/05/09 00:17:31;;;;;;;8.20;4.60;;;12.30;99.90;;;;;;5037593;28;20220;-74
2022/05/09 00:20:20;;;;;;;11.90;4.90;;;12.10;99.90;;;;;;5053093;28;20227;-73
2022/05/09 00:23:10;;;;;;;10.70;4.90;;;12.10;99.90;;;;;;5050734;28;20469;-74
2022/05/09 00:26:00;;;;;;;8.73;4.68;;;12.10;99.90;;;;;;5059819;28;20300;-73
2022/05/09 00:28:50;;;;;;;9.98;5.05;;;12.00;99.90;;;;;;5060986;28;20296;-73
2022/05/09 00:31:40;;;;;;;9.20;4.93;;;12.10;99.90;;;;;;5052208;28;20705;-72
2022/05/09 00:34:29;;;;;;;7.63;4.60;;;11.90;99.90;;;;;;5055464;28;20232;-74
2022/05/09 00:37:17;;;;;;;8.75;4.80;;;11.80;99.90;;;;;;5046623;28;20235;-73
2022/05/09 00:40:10;;;;;;;7.32;4.50;;;11.80;99.90;;;;;;5076958;28;20219;-73
2022/05/09 00:42:58;;;;;;;8.93;4.82;;;11.70;99.90;;;;;;5035779;28;20223;-73
2022/05/09 00:45:47;;;;;;;8.30;4.82;;;11.80;99.90;;;;;;5058013;28;20223;-72
2022/05/09 00:48:36;;;;;;;11.65;5.07;;;11.70;99.90;;;;;;5041523;28;20626;-73
2022/05/09 00:51:29;;;;;;;6.20;4.57;;;11.90;99.90;;;;;;5036824;28;20232;-73
2022/05/09 00:54:18;;;;;;;10.38;4.72;;;11.80;99.90;;;;;;5058241;28;20424;-73
2022/05/09 00:57:15;;;;;;;9.38;5.00;;;11.70;99.90;;;;;;5031213;28;20232;-73
2022/05/09 01:00:07;;;;;;;7.03;4.45;;;11.70;99.90;;;;;;5056829;28;20231;-73
2022/05/09 01:03:01;;;;;;;7.30;4.55;;;11.60;99.90;;;;;;5052466;28;20231;-72
2022/05/09 01:05:51;;;;;;;7.45;4.45;;;11.60;99.90;;;;;;5058652;28;20278;-72
2022/05/09 01:08:40;;;;;;;6.90;4.78;;;11.40;99.90;;;;;;5072801;28;20220;-73
2022/05/09 01:11:30;;;;;;;6.53;4.53;;;11.50;99.90;;;;;;5066422;28;20230;-74
2022/05/09 01:14:23;;;;;;;6.60;4.30;;;11.30;99.90;;;;;;5069820;28;20244;-73
2022/05/09 01:17:18;;;;;;;6.05;4.20;;;11.40;99.90;;;;;;5035830;28;20255;-72
2022/05/09 01:20:09;;;;;;;7.95;4.45;;;11.40;99.90;;;;;;5059108;28;20316;-73
2022/05/09 01:23:00;;;;;;;6.38;4.53;;;11.30;99.90;;;;;;5052993;28;20226;-72
2022/05/09 01:25:49;;;;;;;10.05;4.40;;;11.20;99.90;;;;;;5061436;28;20216;-73
2022/05/09 01:28:38;;;;;;;7.88;4.25;;;11.20;99.90;;;;;;5059952;28;20217;-72
2022/05/09 01:31:26;;;;;;;8.63;4.30;;;11.10;99.90;;;;;;5053840;28;20221;-73
2022/05/09 01:34:17;;;;;;;6.32;4.43;;;11.10;99.90;;;;;;5060531;28;20220;-72
2022/05/09 01:37:09;;;;;;;7.65;4.35;;;11.00;99.90;;;;;;5051228;28;20232;-73
2022/05/09 01:39:59;;;;;;;6.07;4.30;;;11.10;99.90;;;;;;5063745;28;20219;-72
2022/05/09 01:42:48;;;;;;;5.15;3.70;;;11.00;99.90;;;;;;5051549;28;20255;-73
2022/05/09 01:45:37;;;;;;;7.85;4.15;;;10.90;99.90;;;;;;5064626;28;20239;-74
2022/05/09 01:51:33;;;;;;;7.15;4.30;;;10.80;99.90;;;;;;5049507;28;20228;-73
2022/05/09 01:54:22;;;;;;;7.93;4.07;;;10.90;99.90;;;;;;5057459;28;20225;-73
2022/05/09 01:57:13;;;;;;;8.18;3.55;;;10.80;99.90;;;;;;5064512;28;20255;-72
2022/05/09 02:00:04;;;;;;;7.25;3.90;;;10.60;99.90;;;;;;5059095;28;20218;-74
2022/05/09 02:03:01;;;;;;;14.60;4.40;;;10.60;99.90;;;;;;5052027;28;20212;-74
2022/05/09 02:05:50;;;;;;;6.80;4.10;;;10.60;99.90;;;;;;5043911;28;20216;-72
2022/05/09 02:08:39;;;;;;;6.53;3.95;;;10.50;99.90;;;;;;5059083;28;20244;-73
2022/05/09 02:11:28;;;;;;;5.38;3.60;;;10.60;99.90;;;;;;5037558;28;20232;-72
2022/05/09 02:14:18;;;;;;;8.25;4.38;;;10.60;99.90;;;;;;5072305;28;20243;-73
2022/05/09 02:17:07;;;;;;;7.30;3.97;;;10.50;99.90;;;;;;5052270;28;20228;-72
2022/05/09 02:19:56;;;;;;;7.43;3.40;;;10.30;99.90;;;;;;5078977;28;20231;-72
2022/05/09 02:22:45;;;;;;;6.75;3.83;;;10.30;99.90;;;;;;5053177;28;20216;-72
2022/05/09 02:25:35;;;;;;;5.13;4.00;;;10.30;99.90;;;;;;5060583;28;20225;-76
2022/05/09 02:28:24;;;;;;;8.30;3.83;;;10.30;99.90;;;;;;5037509;28;20330;-72
2022/05/09 02:31:15;;;;;;;6.88;3.90;;;10.20;99.90;;;;;;5035170;28;20223;-73
2022/05/09 02:34:03;;;;;;;5.15;3.55;;;10.10;99.90;;;;;;5058482;28;20590;-72
2022/05/09 02:36:52;;;;;;;5.60;4.03;;;10.10;99.90;;;;;;5055156;28;20224;-72
2022/05/09 02:39:41;;;;;;;4.82;3.42;;;10.00;99.90;;;;;;5039496;28;20690;-73
2022/05/09 02:42:30;;;;;;;6.60;4.10;;;9.90;99.90;;;;;;5047912;28;20226;-72
2022/05/09 02:45:18;;;;;;;7.60;4.03;;;10.10;99.90;;;;;;5055877;28;20227;-72
2022/05/09 02:48:10;;;;;;;5.28;3.65;;;10.20;99.90;;;;;;5030573;28;20227;-72
2022/05/09 02:50:59;;;;;;;5.45;3.70;;;10.20;99.90;;;;;;5042811;28;20215;-72
2022/05/09 02:53:47;;;;;;;6.15;3.90;;;10.10;99.90;;;;;;5039788;28;20682;-72
2022/05/09 02:56:36;;;;;;;5.95;3.38;;;9.90;99.90;;;;;;5039171;28;20228;-78
2022/05/09 02:59:24;;;;;;;6.55;3.42;;;10.00;99.90;;;;;;5059399;28;21035;-72
2022/05/09 03:02:13;;;;;;;4.18;3.50;;;9.80;99.90;;;;;;5048858;28;20220;-74
2022/05/09 03:05:04;;;;;;;9.00;3.40;;;9.80;99.90;;;;;;5053711;28;20822;-73
2022/05/09 03:07:53;;;;;;;5.40;3.37;;;9.90;99.90;;;;;;5048560;28;20736;-72
2022/05/09 03:10:41;;;;;;;5.77;3.83;;;9.80;99.90;;;;;;5073508;28;20238;-72
2022/05/09 03:13:30;;;;;;;8.13;3.50;;;9.80;99.90;;;;;;5053527;28;20706;-72
2022/05/09 03:16:19;;;;;;;6.03;3.90;;;9.60;99.90;;;;;;5059408;28;20224;-73
2022/05/09 03:19:08;;;;;;;6.03;3.53;;;9.60;99.90;;;;;;5059514;28;20223;-73
2022/05/09 03:21:58;;;;;;;5.97;3.67;;;9.60;99.90;;;;;;5036556;28;22593;-72
2022/05/09 03:24:48;;;;;;;6.72;3.42;;;9.60;99.90;;;;;;5058700;28;20231;-72
2022/05/09 03:27:38;;;;;;;4.80;3.72;;;9.70;99.90;;;;;;5032497;28;20216;-72
2022/05/09 03:30:27;;;;;;;6.63;3.45;;;9.70;99.90;;;;;;5048049;28;20771;-72
2022/05/09 03:33:16;;;;;;;6.60;3.30;;;9.60;99.90;;;;;;5063337;28;20244;-72
2022/05/09 03:36:06;;;;;;;4.85;3.40;;;9.60;99.90;;;;;;5061550;28;22178;-73
2022/05/09 03:38:57;;;;;;;4.60;3.42;;;9.50;99.90;;;;;;5040679;28;20227;-72
2022/05/09 03:41:45;;;;;;;4.80;3.40;;;9.60;99.90;;;;;;5039029;28;20628;-73
2022/05/09 03:44:35;;;;;;;7.20;3.10;;;9.50;99.90;;;;;;5061547;28;20259;-72
2022/05/09 03:47:25;;;;;;;3.93;3.37;;;9.60;99.90;;;;;;5055151;28;20217;-73
2022/05/09 03:50:14;;;;;;;5.40;3.13;;;9.70;99.90;;;;;;5063563;28;20232;-73
2022/05/09 03:53:05;;;;;;;7.50;3.35;;;9.60;99.90;;;;;;5051140;28;20220;-72
2022/05/09 03:55:56;;;;;;;6.30;3.25;;;9.70;99.90;;;;;;5063649;28;20234;-73
2022/05/09 03:58:45;;;;;;;4.30;3.03;;;9.50;99.90;;;;;;5056413;28;20265;-74
2022/05/09 04:01:34;;;;;;;4.63;3.17;;;9.60;99.90;;;;;;5062324;28;20223;-74
2022/05/09 04:04:23;;;;;;;6.13;2.90;;;9.60;99.90;;;;;;5061105;28;20223;-73
2022/05/09 04:07:12;;;;;;;6.43;3.10;;;9.60;99.90;;;;;;5072960;28;20539;-73
2022/05/09 04:10:00;;;;;;;6.93;3.33;;;9.70;99.90;;;;;;5057643;28;20235;-72
2022/05/09 04:12:51;;;;;;;7.85;3.47;;;9.60;99.90;;;;;;5049001;28;20255;-72
2022/05/09 04:18:48;;;;;;;4.75;2.90;;;9.70;99.90;;;;;;5042257;28;20234;-72
2022/05/09 04:21:37;;;;;;;5.72;2.53;;;9.80;99.90;;;;;;5057914;28;20794;-74
2022/05/09 04:24:26;;;;;;;6.25;3.22;;;9.70;99.90;;;;;;5062167;28;20235;-73
2022/05/09 04:27:15;;;;;;;8.35;3.20;;;9.80;99.90;;;;;;5038800;28;20228;-73
2022/05/09 04:30:08;;;;;;;3.85;2.75;;;9.90;99.90;;;;;;5059986;28;20334;-73
2022/05/09 04:32:56;;;;;;;6.40;2.70;;;9.90;99.90;;;;;;5043725;28;20220;-74
2022/05/09 04:35:45;;;;;;;4.30;2.40;;;10.10;99.90;;;;;;5065442;28;20231;-73
2022/05/09 04:38:38;;;;;;;4.20;2.67;;;10.10;99.90;;;;;;5064047;28;20235;-73
2022/05/09 04:41:27;;;;;;;8.32;2.80;;;10.10;99.90;;;;;;5050962;28;20223;-73
2022/05/09 04:44:15;;;;;;;5.32;2.38;;;10.30;99.90;;;;;;5046598;28;20589;-73
2022/05/09 04:47:06;;;;;;;6.63;2.45;;;10.20;99.90;;;;;;5047602;28;20278;-74
2022/05/09 04:49:54;;;;;;;4.20;2.60;;;10.30;99.90;;;;;;5049986;28;20220;-75
2022/05/09 04:52:43;;;;;;;5.10;2.15;;;10.50;99.90;;;;;;5071647;28;20235;-74
2022/05/09 04:55:32;;;;;;;3.58;2.40;;;10.20;99.90;;;;;;5071993;28;20605;-72
2022/05/09 04:58:24;;;;;;;3.58;2.45;;;10.40;99.90;;;;;;5049992;28;20240;-73
2022/05/09 05:01:13;;;;;;;7.28;2.78;;;10.40;99.90;;;;;;5046665;28;20262;-73
2022/05/09 05:04:05;;;;;;;4.07;2.60;;;10.40;99.90;;;;;;5060848;28;20228;-74
2022/05/09 05:06:54;;;;;;;4.05;2.50;;;10.40;99.90;;;;;;5070669;28;20227;-73
2022/05/09 05:09:43;;;;;;;9.68;2.70;;;10.50;99.90;;;;;;5061489;28;20229;-73
2022/05/09 05:12:32;;;;;;;4.25;2.40;;;10.70;99.90;;;;;;5042376;28;20219;-73
2022/05/09 05:15:21;;;;;;;4.05;2.30;;;10.90;99.90;;;;;;5057569;28;20236;-73
2022/05/09 05:18:09;;;;;;;2.50;1.90;;;10.80;99.90;;;;;;5074508;28;20224;-73
2022/05/09 05:21:08;;;;;;;5.05;2.53;;;10.80;99.90;;;;;;5070460;28;20223;-73
2022/05/09 05:23:59;;;;;;;5.70;2.45;;;11.10;99.90;;;;;;5060112;28;20281;-73
2022/05/09 05:26:47;;;;;;;4.05;1.92;;;10.90;99.90;;;;;;5042323;28;20268;-74
2022/05/09 05:29:36;;;;;;;5.97;2.20;;;10.90;99.90;;;;;;5058212;28;20250;-74
2022/05/09 05:32:27;;;;;;;3.75;2.00;;;11.10;99.90;;;;;;5061062;28;20752;-74
2022/05/09 05:35:19;;;;;;;4.85;1.98;;;11.20;99.90;;;;;;5063540;28;20235;-73
2022/05/09 05:38:09;;;;;;;4.57;2.00;;;11.40;99.90;;;;;;5060807;28;20228;-74
2022/05/09 05:40:58;;;;;;;3.55;1.90;;;11.50;99.90;;;;;;5066232;28;20694;-74
2022/05/09 05:43:47;;;;;;;4.32;2.00;;;11.70;99.90;;;;;;5064046;28;20767;-74
2022/05/09 05:46:36;;;;;;;5.72;1.90;;;11.40;99.90;;;;;;5059932;28;20235;-74
2022/05/09 05:49:24;;;;;;;5.85;2.00;;;11.60;99.90;;;;;;5058719;28;20225;-74
2022/05/09 05:52:14;;;;;;;6.18;2.08;;;11.70;99.90;;;;;;5061743;28;20224;-74
2022/05/09 05:55:05;;;;;;;4.60;1.83;;;12.30;99.90;;;;;;5064063;28;20216;-74
2022/05/09 05:57:54;;;;;;;3.85;2.00;;;12.70;98.80;;;;;;5061131;28;20244;-73
2022/05/09 06:00:42;;;;;;;5.93;1.75;;;13.40;95.40;;;;;;5063651;28;20234;-71
2022/05/09 06:03:31;;;;;;;5.93;1.60;;;13.60;94.00;;;;;;5066054;28;20297;-73
2022/05/09 06:06:19;;;;;;;5.10;2.03;;;13.80;92.10;;;;;;5053795;28;20235;-73
2022/05/09 06:09:09;;;;;;;6.68;2.20;;;13.40;92.60;;;;;;5058100;28;20224;-73
2022/05/09 06:12:01;;;;;;;4.57;1.80;;;13.20;92.20;;;;;;5072320;28;20665;-74
2022/05/09 06:15:24;;;;;;;5.63;1.70;;;12.90;92.80;;;;;;5054999;28;20238;-73
2022/05/09 06:18:02;;;;;;;4.90;2.05;;;12.80;92.90;;;;;;5049884;28;20215;-74
2022/05/09 06:20:51;;;;;;;3.35;2.10;;;13.10;93.20;;;;;;5046040;28;20718;-74
2022/05/09 06:23:40;;;;;;;9.98;2.15;;;13.40;93.00;;;;;;5058472;28;20236;-74
2022/05/09 06:26:29;;;;;;;2.97;1.38;;;13.70;92.10;;;;;;5071103;28;20227;-84
2022/05/09 06:29:20;;;;;;;3.70;1.58;;;13.70;90.40;;;;;;5051445;28;20809;-81
2022/05/09 06:32:29;;;;;;;5.40;1.80;;;13.50;90.90;;;;;;5061388;28;20828;-77
2022/05/09 06:35:20;;;;;;;3.90;1.90;;;13.50;90.50;;;;;;5051601;28;20616;-73
2022/05/09 06:38:09;;;;;;;4.57;1.85;;;13.30;90.60;;;;;;5055252;28;20405;-74
2022/05/09 06:41:01;;;;;;;8.50;1.80;;;13.30;90.60;;;;;;5060021;28;21014;-75
2022/05/09 06:43:50;;;;;;;2.83;1.70;;;13.60;90.40;;;;;;5060812;28;20221;-75
2022/05/09 06:46:40;;;;;;;3.67;1.65;;;13.70;89.70;;;;;;5055276;28;20326;-74
2022/05/09 06:49:29;;;;;;;4.55;1.80;;;13.90;88.50;;;;;;5061160;28;20220;-74
2022/05/09 06:52:18;;;;;;;5.28;1.50;;;14.00;87.10;;;;;;5071303;28;20731;-74
2022/05/09 06:55:08;;;;;;;4.32;2.05;;;14.10;86.40;;;;;;5062880;28;20224;-74
2022/05/09 06:57:56;;;;;;;5.45;1.65;;;14.20;85.20;;;;;;5059012;28;20304;-74
2022/05/09 07:00:46;;;;;;;5.07;1.73;;;14.70;85.10;;;;;;5043127;28;20224;-75
2022/05/09 07:03:36;;;;;;;5.15;1.95;;;14.70;82.80;;;;;;5063017;28;20231;-74
2022/05/09 07:06:25;;;;;;;4.00;1.52;;;14.60;82.60;;;;;;5059453;28;20220;-74
2022/05/09 07:09:15;;;;;;;4.72;2.05;;;14.60;81.80;;;;;;5041576;28;21265;-73
2022/05/09 07:12:06;;;;;;;8.27;1.88;;;15.00;81.20;;;;;;5048453;28;20212;-74
2022/05/09 07:14:55;;;;;;;4.82;2.38;;;15.30;80.00;;;;;;5070385;28;20717;-75
2022/05/09 07:17:45;;;;;;;5.50;1.67;;;15.90;78.80;;;;;;5069855;28;20235;-74
2022/05/09 07:20:36;;;;;;;3.10;1.80;;;15.50;77.70;;;;;;5042936;28;20745;-74
2022/05/09 07:23:25;;;;;;;3.92;1.55;;;16.00;76.30;;;;;;5061772;28;20216;-74
2022/05/09 07:26:13;;;;;;;4.05;1.83;;;16.40;74.50;;;;;;5068433;28;20217;-74
2022/05/09 07:29:09;;;;;;;8.27;1.90;;;16.20;74.70;;;;;;5047115;28;20593;-74
2022/05/09 07:31:58;;;;;;;5.95;1.92;;;16.40;74.00;;;;;;5044064;28;20224;-74
2022/05/09 07:34:48;;;;;;;3.65;1.75;;;17.00;71.50;;;;;;5057853;28;20220;-74
2022/05/09 07:37:40;;;;;;;5.82;1.83;;;17.40;71.80;;;;;;5061493;28;20231;-74
2022/05/09 07:40:29;;;;;;;3.03;1.50;;;17.10;70.10;;;;;;5042373;28;20216;-74
2022/05/09 07:43:19;;;;;;;2.28;1.60;;;18.30;67.30;;;;;;5057124;28;22057;-74
2022/05/09 07:46:08;;;;;;;4.65;1.50;;;19.60;63.10;;;;;;5056791;28;20222;-75
2022/05/09 07:49:16;;;;;;;10.20;1.52;;;18.90;61.10;;;;;;5058691;28;20808;-74
2022/05/09 07:52:08;;;;;;;5.82;1.30;;;18.70;60.90;;;;;;5055261;28;20224;-75
2022/05/09 07:54:58;;;;;;;6.90;1.40;;;18.40;61.20;;;;;;5041520;28;21712;-75
2022/05/09 07:57:47;;;;;;;2.33;1.35;;;18.70;59.90;;;;;;5060069;28;20743;-74
2022/05/09 08:00:45;;;;;;;4.75;1.85;;;19.60;59.30;;;;;;5070714;28;20220;-73
2022/05/09 08:03:37;;;;;;;3.10;1.38;;;21.60;55.90;;;;;;5067871;28;20228;-74
2022/05/09 08:06:27;;;;;;;4.85;1.42;;;21.20;55.60;;;;;;5055570;28;20256;-73
2022/05/09 08:09:16;;;;;;;3.95;1.30;;;21.60;54.60;;;;;;5035806;28;20232;-74
2022/05/09 08:12:08;;;;;;;3.80;1.52;;;21.20;54.50;;;;;;5054857;28;20220;-73
2022/05/09 08:14:56;;;;;;;3.75;1.70;;;22.80;53.50;;;;;;5078195;28;20303;-74
2022/05/09 08:17:49;;;;;;;2.42;1.40;;;22.90;51.20;;;;;;5069715;28;20258;-74
2022/05/09 08:20:39;;;;;;;3.70;1.67;;;23.10;51.20;;;;;;5077239;28;20241;-72
2022/05/09 08:23:30;;;;;;;5.65;1.70;;;21.90;50.80;;;;;;5046726;28;20236;-73
2022/05/09 08:26:21;;;;;;;4.30;1.70;;;21.60;52.40;;;;;;5048932;28;20270;-74
2022/05/09 08:29:12;;;;;;;5.05;1.85;;;23.10;51.30;;;;;;5063116;28;21313;-73
2022/05/09 08:32:00;;;;;;;3.47;1.50;;;24.50;48.90;;;;;;5066608;28;20211;-73
2022/05/09 08:34:51;;;;;;;5.10;1.52;;;26.60;46.70;;;;;;5061943;28;20231;-74
2022/05/09 08:37:43;;;;;;;4.32;1.95;;;24.70;45.70;;;;;;5061090;28;20261;-74
2022/05/09 08:40:35;;;;;;;3.75;1.90;;;26.20;47.10;;;;;;5062377;28;20221;-73
2022/05/09 08:43:31;;;;;;;2.58;1.60;;;25.40;46.00;;;;;;5062778;28;20228;-74
2022/05/09 08:46:30;;;;;;;2.95;1.70;;;27.30;44.20;;;;;;5069091;28;20254;-76
2022/05/09 08:49:33;;;;;;;3.90;1.60;;;29.00;43.50;;;;;;5062864;28;20530;-74
2022/05/09 08:52:26;;;;;;;4.20;1.45;;;27.10;41.90;;;;;;5044784;28;20231;-75
2022/05/09 08:55:18;;;;;;;6.13;1.85;;;25.70;43.90;;;;;;5062114;28;20234;-74
2022/05/09 08:58:19;;;;;;;3.33;1.42;;;26.30;43.50;;;;;;5061521;28;20735;-74
2022/05/09 09:01:17;;;;;;;2.28;1.45;;;25.80;43.20;;;;;;5039568;28;20259;-75
2022/05/09 09:04:19;;;;;;;2.70;1.55;;;25.20;44.20;;;;;;5071542;28;20338;-74
2022/05/09 09:07:38;;;;;;;5.60;1.65;;;27.10;42.20;;;;;;5074025;28;21213;-73
2022/05/09 09:10:33;;;;;;;3.20;1.40;;;26.40;44.10;;;;;;5058641;28;20435;-74
2022/05/09 09:13:38;;;;;;;1.77;1.27;;;25.70;43.00;;;;;;5070691;28;20220;-74
2022/05/09 09:16:46;;;;;;;2.72;1.52;;;27.30;42.50;;;;;;5075138;28;20219;-73
2022/05/09 09:19:53;;;;;;;6.97;1.70;;;28.20;41.30;;;;;;5066591;28;20228;-73
2022/05/09 09:23:14;;;;;;;5.32;1.50;;;30.80;38.50;;;;;;5042059;28;20310;-73
2022/05/09 09:26:05;;;;;;;2.72;1.63;;;29.20;38.00;;;;;;5036613;28;20213;-74
2022/05/09 09:29:02;;;;;;;5.00;1.95;;;28.70;40.20;;;;;;5036093;28;20229;-74
2022/05/09 09:31:58;;;;;;;4.30;1.50;;;27.70;39.40;;;;;;5040833;28;20351;-74
2022/05/09 09:34:57;;;;;;;4.93;1.50;;;26.60;40.00;;;;;;5039503;28;20703;-74
2022/05/09 09:37:51;;;;;;;2.72;1.45;;;27.10;41.20;;;;;;5040859;28;20800;-74
2022/05/09 09:40:41;;;;;;;3.15;1.40;;;29.20;39.50;;;;;;5037215;28;20228;-75
2022/05/09 09:43:31;;;;;;;2.67;1.38;;;26.90;39.10;;;;;;5038314;28;20702;-74
2022/05/09 09:46:20;;;;;;;5.22;1.50;;;26.60;41.10;;;;;;5039652;28;20590;-74
2022/05/09 09:49:09;;;;;;;4.22;1.40;;;28.00;40.70;;;;;;5031337;28;20216;-75
2022/05/09 09:52:04;;;;;;;4.53;1.40;;;29.30;39.30;;;;;;5023875;28;20228;-74
2022/05/09 09:54:57;;;;;;;2.33;1.40;;;28.70;38.50;;;;;;5053715;28;20288;-74
2022/05/09 09:57:48;;;;;;;2.92;1.42;;;27.00;39.40;;;;;;5055001;28;20224;-74
2022/05/09 10:00:37;;;;;;;4.65;1.70;;;26.00;41.40;;;;;;5043667;28;20231;-76
2022/05/09 10:03:30;;;;;;;3.10;1.85;;;26.10;42.00;;;;;;5038677;28;20268;-74
2022/05/09 10:06:21;;;;;;;2.45;1.50;;;24.20;40.80;;;;;;5040934;28;22117;-74
2022/05/09 10:09:20;;;;;;;4.85;1.77;;;24.10;41.20;;;;;;5040414;28;20225;-74
2022/05/09 10:12:19;;;;;;;1.95;1.50;;;23.90;42.80;;;;;;5036499;28;20229;-75
2022/05/09 10:15:28;;;;;;;2.47;1.30;;;22.40;43.40;;;;;;5050398;28;20225;-74
2022/05/09 10:18:21;;;;;;;1.85;1.42;;;23.80;43.00;;;;;;5030949;28;20224;-74
2022/05/09 10:24:51;;;;;;;7.38;1.90;;;28.10;39.90;;;;;;5048332;28;20221;-74
2022/05/09 10:27:48;;;;;;;4.68;1.60;;;28.40;38.70;;;;;;5045152;28;21043;-75
2022/05/09 10:30:40;;;;;;;3.20;1.40;;;29.50;38.30;;;;;;5027245;28;20220;-74
2022/05/09 10:33:37;;;;;;;6.05;1.70;;;27.80;38.40;;;;;;5031618;28;20220;-75
2022/05/09 10:36:29;;;;;;;2.67;1.40;;;26.70;39.80;;;;;;5036176;28;20314;-75
2022/05/09 10:39:25;;;;;;;1.98;1.33;;;26.30;39.10;;;;;;5047992;28;20313;-74
2022/05/09 10:42:26;;;;;;;2.22;1.58;;;27.70;39.50;;;;;;5035116;28;20217;-76
2022/05/09 10:45:19;;;;;;;3.72;1.45;;;29.00;38.90;;;;;;5023431;28;20717;-76
2022/05/09 10:48:12;;;;;;;2.25;1.30;;;30.40;36.70;;;;;;5020735;28;20764;-75
2022/05/09 10:51:10;;;;;;;3.38;1.50;;;29.70;35.80;;;;;;5021580;28;20223;-75
2022/05/09 10:54:18;;;;;;;1.17;1.08;;;28.50;36.30;;;;;;5033347;28;20216;-75
2022/05/09 10:57:11;;;;;;;2.88;1.60;;;27.60;38.30;;;;;;5035515;28;20599;-76
2022/05/09 11:00:25;;;;;;;2.90;1.30;;;27.30;37.80;;;;;;5033559;28;20244;-75
2022/05/09 11:03:23;;;;;;;5.38;1.40;;;29.00;37.00;;;;;;5018913;28;20224;-77
2022/05/09 11:06:37;;;;;;;5.22;1.38;;;29.20;36.60;;;;;;5033566;28;20232;-77
2022/05/09 11:09:36;;;;;;;2.60;1.20;;;29.50;35.70;;;;;;5019867;28;20216;-78
2022/05/09 11:12:38;;;;;;;1.67;1.20;;;29.60;35.80;;;;;;5029829;28;20224;-76
2022/05/09 11:15:38;;;;;;;4.30;1.50;;;30.80;36.10;;;;;;5032626;28;20604;-76
2022/05/09 11:18:40;;;;;;;5.20;1.55;;;31.90;34.70;;;;;;5034258;28;20220;-77
2022/05/09 11:21:39;;;;;;;3.22;1.10;;;30.50;35.10;;;;;;5018935;28;20217;-77
2022/05/09 11:24:43;;;;;;;2.28;1.20;;;30.50;34.30;;;;;;5044405;28;20292;-76
2022/05/09 11:27:46;;;;;;;4.07;1.33;;;29.10;35.50;;;;;;5042036;28;20596;-77
2022/05/09 11:30:40;;;;;;;1.90;1.40;;;29.10;35.40;;;;;;5056566;28;20257;-76
2022/05/09 11:33:41;;;;;;;2.50;1.20;;;31.40;34.70;;;;;;5061319;28;25974;-77
2022/05/09 11:36:48;;;;;;;2.13;1.10;;;31.50;33.70;;;;;;5055454;28;20969;-76
2022/05/09 11:39:48;;;;;;;3.55;1.48;;;31.00;33.90;;;;;;5041825;28;20223;-77
2022/05/09 11:46:14;;;;;;;1.60;1.15;;;31.80;33.50;;;;;;5050877;28;20581;-76
2022/05/09 11:49:18;;;;;;;2.10;1.27;;;29.60;33.10;;;;;;5057434;28;20218;-76
2022/05/09 11:52:11;;;;;;;2.40;1.20;;;27.20;33.20;;;;;;5053304;28;20223;-76
2022/05/09 11:55:07;;;;;;;3.75;1.67;;;28.00;34.40;;;;;;5056759;28;20349;-75
2022/05/09 11:57:58;;;;;;;2.45;1.40;;;29.40;34.60;;;;;;5040557;28;20230;-75
2022/05/09 12:00:50;;;;;;;4.07;1.60;;;28.20;33.80;;;;;;5039541;28;20219;-75
2022/05/09 12:04:02;;;;;;;4.25;1.55;;;29.00;35.40;;;;;;5053592;28;20224;-75
2022/05/09 12:06:51;;;;;;;4.65;1.60;;;29.90;33.10;;;;;;5009726;28;20235;-74
2022/05/09 12:10:02;;;;;;;3.95;1.40;;;29.80;33.20;;;;;;5054795;28;20219;-75
2022/05/09 12:12:55;;;;;;;3.17;1.40;;;28.90;33.80;;;;;;5056273;28;20284;-75
2022/05/09 12:15:50;;;;;;;3.38;1.30;;;29.60;33.00;;;;;;5043366;28;20669;-74
2022/05/09 12:18:55;;;;;;;3.38;1.25;;;33.00;31.90;;;;;;5055293;28;20220;-75
2022/05/09 12:22:24;;;;;;;1.67;1.23;;;31.30;29.90;;;;;;5038522;28;20231;-74
2022/05/09 12:25:59;;;;;;;1.40;1.30;;;32.00;31.10;;;;;;5068763;28;20215;-74
2022/05/09 12:28:50;;;;;;;3.75;1.40;;;30.40;31.50;;;;;;5038706;28;20751;-74
2022/05/09 12:31:43;;;;;;;3.75;1.52;;;29.50;31.60;;;;;;5058959;28;20219;-74
2022/05/09 12:34:38;;;;;;;2.80;1.65;;;25.80;33.40;;;;;;5053436;28;20355;-73
2022/05/09 12:37:29;;;;;;;3.78;1.40;;;24.10;35.40;;;;;;5059192;28;20639;-73
2022/05/09 12:40:23;;;;;;;6.03;1.60;;;23.20;37.00;;;;;;5051192;28;20268;-72
2022/05/09 12:43:12;;;;;;;4.35;2.10;;;22.10;40.00;;;;;;5039583;28;20808;-75
2022/05/09 12:46:03;;;;;;;4.50;1.52;;;21.20;41.50;;;;;;5052711;28;20224;-74
2022/05/09 12:48:56;;;;;;;2.75;1.40;;;21.70;40.90;;;;;;5048042;28;20310;-73
2022/05/09 12:51:48;;;;;;;3.53;1.40;;;21.20;41.80;;;;;;5034374;28;21043;-73
2022/05/09 12:55:51;;;;;;;3.03;1.50;;;20.60;41.90;;;;;;5050618;28;20235;-74
2022/05/09 12:57:48;;;;;;;2.92;1.33;;;20.50;42.20;;;;;;5056196;28;20216;-72
2022/05/09 13:00:38;;;;;;;2.42;1.30;;;20.50;42.10;;;;;;5056204;28;21194;-73
2022/05/09 13:03:50;;;;;;;3.55;1.48;;;20.70;41.50;;;;;;5054422;28;20224;-74
2022/05/09 13:06:46;;;;;;;2.80;1.02;;;20.70;41.60;;;;;;5053172;28;20247;-72
2022/05/09 13:09:46;;;;;;;3.13;1.33;;;19.20;43.80;;;;;;5054710;28;20217;-74
2022/05/09 13:12:42;;;;;;;3.00;1.40;;;19.90;44.00;;;;;;5034886;28;20406;-74
2022/05/09 13:15:32;;;;;;;6.07;1.35;;;19.40;44.00;;;;;;5055373;28;20220;-74
2022/05/09 13:18:25;;;;;;;3.05;1.40;;;19.50;44.50;;;;;;5071326;28;20788;-75
2022/05/09 13:21:14;;;;;;;2.47;1.27;;;19.90;44.40;;;;;;5053631;28;20616;-74
2022/05/09 13:24:03;;;;;;;6.55;1.50;;;19.50;44.90;;;;;;5054265;28;20288;-73
2022/05/09 13:26:57;;;;;;;2.20;1.35;;;19.60;45.30;;;;;;5052918;28;20289;-73
2022/05/09 13:29:51;;;;;;;4.25;1.40;;;19.30;45.40;;;;;;5057500;28;20227;-73
2022/05/09 13:32:40;;;;;;;2.17;1.17;;;18.90;45.70;;;;;;5057388;28;20701;-73
2022/05/09 13:35:33;;;;;;;3.78;1.38;;;19.30;45.60;;;;;;5039095;28;20242;-73
2022/05/09 13:38:25;;;;;;;2.33;1.50;;;19.10;45.70;;;;;;5053990;28;20335;-74
2022/05/09 13:41:18;;;;;;;2.78;1.52;;;19.10;45.90;;;;;;5038341;28;20232;-74
2022/05/09 13:44:12;;;;;;;3.22;1.42;;;18.70;45.40;;;;;;5064531;28;20228;-74
2022/05/09 13:47:02;;;;;;;4.55;1.42;;;19.00;45.20;;;;;;5039492;28;20774;-72
2022/05/09 13:49:52;;;;;;;5.03;1.60;;;18.80;45.50;;;;;;5054545;28;20232;-73
2022/05/09 13:52:47;;;;;;;4.15;1.40;;;19.00;45.00;;;;;;5053623;28;20224;-73
2022/05/09 13:55:42;;;;;;;3.50;1.85;;;18.80;44.90;;;;;;5070994;28;20313;-72
2022/05/09 13:58:32;;;;;;;5.57;1.70;;;19.20;45.10;;;;;;5065115;28;20697;-72
2022/05/09 14:01:24;;;;;;;2.13;1.60;;;19.50;44.40;;;;;;5066770;28;20234;-73
2022/05/09 14:04:17;;;;;;;8.30;1.83;;;19.10;44.30;;;;;;5058280;28;20581;-73
2022/05/09 14:10:26;;;;;;;3.60;1.80;;;19.50;45.00;;;;;;5066560;28;20223;-73
2022/05/09 14:13:44;;;;;;;4.30;1.73;;;19.20;45.10;;;;;;5041224;28;20228;-74
2022/05/09 14:16:45;;;;;;;7.72;1.85;;;18.60;46.00;;;;;;5072452;28;20242;-73
2022/05/09 14:19:36;;;;;;;6.80;1.63;;;18.50;46.50;;;;;;5069785;28;20684;-73
2022/05/09 14:22:28;;;;;;;4.75;1.60;;;18.60;46.50;;;;;;5050225;28;20285;-72
2022/05/09 14:31:46;;;;;;;4.45;1.52;;;19.00;46.50;;;;;;5055114;28;20239;-72
2022/05/09 14:34:38;;;;;;;4.75;1.70;;;18.40;47.30;;;;;;5057033;28;21888;-74
2022/05/09 14:37:33;;;;;;;5.50;1.90;;;18.50;47.90;;;;;;5048237;28;20749;-76
2022/05/09 14:40:24;;;;;;;8.77;1.95;;;18.70;47.70;;;;;;5064519;28;20228;-78
2022/05/09 14:43:29;;;;;;;7.05;2.00;;;19.00;47.70;;;;;;5063267;28;20228;-77
2022/05/09 14:46:20;;;;;;;4.72;1.80;;;19.10;47.00;;;;;;5063489;28;20239;-76
2022/05/09 14:49:17;;;;;;;3.80;1.50;;;18.90;48.00;;;;;;5070795;28;20365;-76
2022/05/09 14:52:12;;;;;;;4.07;1.70;;;18.80;48.00;;;;;;5066064;28;20223;-76
2022/05/09 14:58:21;;;;;;;4.70;1.75;;;18.60;48.40;;;;;;5070895;28;20239;-77
2022/05/09 15:01:24;;;;;;;3.22;1.83;;;18.40;48.20;;;;;;5048020;28;20215;-78
2022/05/09 15:04:15;;;;;;;4.18;1.83;;;18.50;48.00;;;;;;5067570;28;20220;-76
2022/05/09 15:07:08;;;;;;;4.30;1.70;;;18.70;48.40;;;;;;5071181;28;20272;-76
2022/05/09 15:09:56;;;;;;;3.17;1.38;;;18.30;48.50;;;;;;5070044;28;20241;-76
2022/05/09 15:12:45;;;;;;;4.97;1.90;;;18.70;48.40;;;;;;5073120;28;20224;-76
2022/05/09 15:15:34;;;;;;;5.38;1.80;;;18.80;48.20;;;;;;5077145;28;20869;-75
2022/05/09 15:18:25;;;;;;;2.40;1.45;;;18.90;48.00;;;;;;5055873;28;20235;-75
2022/05/09 15:21:16;;;;;;;6.43;1.65;;;18.70;48.10;;;;;;5053916;28;20220;-77
2022/05/09 15:24:07;;;;;;;7.88;1.77;;;18.30;49.00;;;;;;5077051;28;20759;-82
2022/05/09 15:26:57;;;;;;;4.25;1.35;;;18.40;49.60;;;;;;5092669;28;20305;-84